Meteo Giornale » Osservazioni meteo Italia » Lecce

ore: 06:55 - Osservazioni Meteo Lecce
Lat. 40° 14' N Lon. 18° 9' E Alt. 48 metri s.l.m.

nebbia Europe/Rome

1 °C

Nebbia

Temp. 24 Ore

0 °C

15 °C

Nord

0 Km/h

Dew point 0 °C

Umidità 93 %

Visibilità  0.3 Km

Il sole sorge alle ore 06:35

Il sole tramonta alle ore 17:27

Data e Ora Cielo e Fenomeni T °C DP °C Um. % Pres. hPa Vis. km Vento km/h
Oggi h: 06:55 nebbia Nebbia 1 0 93 1022 0.3 N 0
Oggi h: 06:27 nebbia Nebbia 1 1 100 1022 0.3 N 0
Oggi h: 05:55 foschia Foschia 1 1 100 1022 1 N 0
Oggi h: 04:55 nuvoloso Nuvoloso 3 2 93 1022 6 N 0
Oggi h: 03:55 sereno Sereno 3 2 93 1022 10 N 0
Oggi h: 02:55 sereno Sereno 3 2 93 1023 10 N 0
Oggi h: 01:55 sereno Sereno 4 3 93 1023 10 N 0
Ieri h: 23:55 sereno Sereno 5 4 93 1024 10 N 0
Ieri h: 22:55 sereno Sereno 5 4 93 1024 10 N 0
Ieri h: 20:55 sereno Sereno 6 5 93 1024 10 N 3.7
Ieri h: 19:55 sereno Sereno 7 5 87 1024 10 N 5.5
Ieri h: 17:55 sereno Sereno 11 7 76 1024 10 N 3.7
Ieri h: 16:55 sereno Sereno 13 8 71 1024 10 O 9.3
Ieri h: 15:55 sereno Sereno 15 9 67 1024 10 O 11.1
Ieri h: 12:55 sereno Sereno 15 6 54 1026 10 N 5.5
Ieri h: 11:55 sereno Sereno 15 7 58 1027 10 N 5.5
Ieri h: 10:55 sereno Sereno 14 6 58 1028 10 N 5.5
Ieri h: 09:55 sereno Sereno 13 8 71 1028 10 N/NO 9.3
Ieri h: 08:55 sereno Sereno 7 7 100 1029 6 N 1.8
Ieri h: 08:30 foschia Foschia 6 5 93 1029 3 N 1.8
Ieri h: 08:16 foschia Foschia 5 4 93 1029 2 N 1.8
Ieri h: 08:07 nebbia Nebbia 4 3 93 1029 0.9 N 1.8
Ieri h: 07:55 nebbia Nebbia 2 1 93 1029 0.4 N 1.8
Ieri h: 06:55 nebbia Nebbia 0 -1 92 1029 0.6 N 3.7